sensor_id;sensor_type;location;lat;lon;timestamp;P1;durP1;ratioP1;P2;durP2;ratioP2
35496;SDS011;21609;49.298;6.844;2022-07-12T00:01:31;7.82;;;7.22;;
35496;SDS011;21609;49.298;6.844;2022-07-12T00:03:56;7.60;;;7.00;;
35496;SDS011;21609;49.298;6.844;2022-07-12T00:06:22;8.27;;;7.57;;
35496;SDS011;21609;49.298;6.844;2022-07-12T00:08:47;8.13;;;7.50;;
35496;SDS011;21609;49.298;6.844;2022-07-12T00:11:13;7.38;;;6.78;;
35496;SDS011;21609;49.298;6.844;2022-07-12T00:13:39;7.38;;;6.80;;
35496;SDS011;21609;49.298;6.844;2022-07-12T00:16:04;7.38;;;6.78;;
35496;SDS011;21609;49.298;6.844;2022-07-12T00:18:31;8.65;;;8.05;;
35496;SDS011;21609;49.298;6.844;2022-07-12T00:20:57;8.13;;;7.53;;
35496;SDS011;21609;49.298;6.844;2022-07-12T00:23:22;7.90;;;7.30;;
35496;SDS011;21609;49.298;6.844;2022-07-12T00:25:48;8.10;;;7.40;;
35496;SDS011;21609;49.298;6.844;2022-07-12T00:28:14;8.10;;;7.40;;
35496;SDS011;21609;49.298;6.844;2022-07-12T00:30:40;7.97;;;7.38;;
35496;SDS011;21609;49.298;6.844;2022-07-12T00:33:06;7.80;;;7.20;;
35496;SDS011;21609;49.298;6.844;2022-07-12T00:35:31;7.22;;;6.63;;
35496;SDS011;21609;49.298;6.844;2022-07-12T00:37:57;7.57;;;7.00;;
35496;SDS011;21609;49.298;6.844;2022-07-12T00:40:22;7.38;;;6.88;;
35496;SDS011;21609;49.298;6.844;2022-07-12T00:42:48;8.43;;;7.82;;
35496;SDS011;21609;49.298;6.844;2022-07-12T00:45:14;7.07;;;6.57;;
35496;SDS011;21609;49.298;6.844;2022-07-12T00:47:40;7.47;;;6.88;;
35496;SDS011;21609;49.298;6.844;2022-07-12T00:50:13;7.88;;;7.28;;
35496;SDS011;21609;49.298;6.844;2022-07-12T00:52:40;7.15;;;6.65;;
35496;SDS011;21609;49.298;6.844;2022-07-12T00:55:07;7.95;;;7.35;;
35496;SDS011;21609;49.298;6.844;2022-07-12T00:57:35;7.70;;;7.00;;
35496;SDS011;21609;49.298;6.844;2022-07-12T01:00:02;10.10;;;7.88;;
35496;SDS011;21609;49.298;6.844;2022-07-12T01:02:30;7.57;;;6.80;;
35496;SDS011;21609;49.298;6.844;2022-07-12T01:04:56;8.07;;;7.47;;
35496;SDS011;21609;49.298;6.844;2022-07-12T01:07:23;7.50;;;6.90;;
35496;SDS011;21609;49.298;6.844;2022-07-12T01:09:53;8.13;;;7.53;;
35496;SDS011;21609;49.298;6.844;2022-07-12T01:12:19;7.75;;;7.15;;
35496;SDS011;21609;49.298;6.844;2022-07-12T01:14:46;7.35;;;6.85;;
35496;SDS011;21609;49.298;6.844;2022-07-12T01:17:14;7.90;;;7.20;;
35496;SDS011;21609;49.298;6.844;2022-07-12T01:19:40;7.97;;;6.82;;
35496;SDS011;21609;49.298;6.844;2022-07-12T01:22:08;6.95;;;6.45;;
35496;SDS011;21609;49.298;6.844;2022-07-12T01:24:35;7.45;;;6.85;;
35496;SDS011;21609;49.298;6.844;2022-07-12T01:27:04;7.97;;;7.20;;
35496;SDS011;21609;49.298;6.844;2022-07-12T01:29:31;6.95;;;6.45;;
35496;SDS011;21609;49.298;6.844;2022-07-12T01:31:59;7.70;;;7.00;;
35496;SDS011;21609;49.298;6.844;2022-07-12T01:34:46;7.78;;;7.05;;
35496;SDS011;21609;49.298;6.844;2022-07-12T01:37:16;7.40;;;6.80;;
35496;SDS011;21609;49.298;6.844;2022-07-12T01:39:47;7.20;;;6.65;;
35496;SDS011;21609;49.298;6.844;2022-07-12T01:42:14;6.90;;;6.40;;
35496;SDS011;21609;49.298;6.844;2022-07-12T01:44:40;7.82;;;7.13;;
35496;SDS011;21609;49.298;6.844;2022-07-12T01:47:06;8.20;;;7.47;;
35496;SDS011;21609;49.298;6.844;2022-07-12T01:49:32;7.38;;;6.88;;
35496;SDS011;21609;49.298;6.844;2022-07-12T01:51:58;6.70;;;6.10;;
35496;SDS011;21609;49.298;6.844;2022-07-12T01:54:24;7.35;;;6.75;;
35496;SDS011;21609;49.298;6.844;2022-07-12T01:56:51;7.30;;;6.60;;
35496;SDS011;21609;49.298;6.844;2022-07-12T01:59:17;7.90;;;7.30;;
35496;SDS011;21609;49.298;6.844;2022-07-12T02:01:44;6.97;;;6.47;;
35496;SDS011;21609;49.298;6.844;2022-07-12T02:04:10;6.53;;;6.03;;
35496;SDS011;21609;49.298;6.844;2022-07-12T02:06:36;7.40;;;6.88;;
35496;SDS011;21609;49.298;6.844;2022-07-12T02:09:03;8.05;;;7.28;;
35496;SDS011;21609;49.298;6.844;2022-07-12T02:11:29;7.28;;;6.72;;
35496;SDS011;21609;49.298;6.844;2022-07-12T02:13:55;7.57;;;6.97;;
35496;SDS011;21609;49.298;6.844;2022-07-12T02:16:21;6.57;;;6.07;;
35496;SDS011;21609;49.298;6.844;2022-07-12T02:18:47;7.28;;;6.78;;
35496;SDS011;21609;49.298;6.844;2022-07-12T02:21:12;7.13;;;6.63;;
35496;SDS011;21609;49.298;6.844;2022-07-12T02:23:38;8.05;;;7.35;;
35496;SDS011;21609;49.298;6.844;2022-07-12T02:26:03;6.88;;;6.28;;
35496;SDS011;21609;49.298;6.844;2022-07-12T02:28:29;6.63;;;6.13;;
35496;SDS011;21609;49.298;6.844;2022-07-12T02:30:56;7.38;;;6.78;;
35496;SDS011;21609;49.298;6.844;2022-07-12T02:33:22;7.70;;;7.10;;
35496;SDS011;21609;49.298;6.844;2022-07-12T02:35:48;7.60;;;7.00;;
35496;SDS011;21609;49.298;6.844;2022-07-12T02:38:14;7.07;;;6.40;;
35496;SDS011;21609;49.298;6.844;2022-07-12T02:40:40;6.97;;;6.38;;
35496;SDS011;21609;49.298;6.844;2022-07-12T02:43:24;7.07;;;6.50;;
35496;SDS011;21609;49.298;6.844;2022-07-12T02:45:51;7.25;;;6.65;;
35496;SDS011;21609;49.298;6.844;2022-07-12T02:48:18;7.38;;;6.78;;
35496;SDS011;21609;49.298;6.844;2022-07-12T02:50:44;7.78;;;7.18;;
35496;SDS011;21609;49.298;6.844;2022-07-12T02:53:10;7.10;;;6.60;;
35496;SDS011;21609;49.298;6.844;2022-07-12T02:55:36;6.88;;;6.38;;
35496;SDS011;21609;49.298;6.844;2022-07-12T02:58:03;6.35;;;5.88;;
35496;SDS011;21609;49.298;6.844;2022-07-12T03:00:31;6.97;;;6.47;;
35496;SDS011;21609;49.298;6.844;2022-07-12T03:02:56;7.38;;;6.78;;
35496;SDS011;21609;49.298;6.844;2022-07-12T03:05:22;6.55;;;6.05;;
35496;SDS011;21609;49.298;6.844;2022-07-12T03:07:48;6.38;;;5.97;;
35496;SDS011;21609;49.298;6.844;2022-07-12T03:10:13;7.28;;;6.57;;
35496;SDS011;21609;49.298;6.844;2022-07-12T03:12:39;6.80;;;6.25;;
35496;SDS011;21609;49.298;6.844;2022-07-12T03:15:05;6.97;;;6.28;;
35496;SDS011;21609;49.298;6.844;2022-07-12T03:17:32;6.78;;;6.28;;
35496;SDS011;21609;49.298;6.844;2022-07-12T03:19:58;7.47;;;6.88;;
35496;SDS011;21609;49.298;6.844;2022-07-12T03:22:23;7.18;;;6.57;;
35496;SDS011;21609;49.298;6.844;2022-07-12T03:24:49;6.32;;;5.80;;
35496;SDS011;21609;49.298;6.844;2022-07-12T03:27:16;6.93;;;6.43;;
35496;SDS011;21609;49.298;6.844;2022-07-12T03:29:42;7.05;;;6.55;;
35496;SDS011;21609;49.298;6.844;2022-07-12T03:32:07;6.05;;;5.63;;
35496;SDS011;21609;49.298;6.844;2022-07-12T03:34:33;7.63;;;6.93;;
35496;SDS011;21609;49.298;6.844;2022-07-12T03:36:59;6.93;;;6.38;;
35496;SDS011;21609;49.298;6.844;2022-07-12T03:39:25;7.22;;;6.50;;
35496;SDS011;21609;49.298;6.844;2022-07-12T03:41:50;6.95;;;6.43;;
35496;SDS011;21609;49.298;6.844;2022-07-12T03:44:16;6.93;;;6.40;;
35496;SDS011;21609;49.298;6.844;2022-07-12T03:46:42;7.28;;;6.72;;
35496;SDS011;21609;49.298;6.844;2022-07-12T03:49:07;7.03;;;6.53;;
35496;SDS011;21609;49.298;6.844;2022-07-12T03:51:33;7.00;;;6.45;;
35496;SDS011;21609;49.298;6.844;2022-07-12T03:53:59;7.20;;;6.70;;
35496;SDS011;21609;49.298;6.844;2022-07-12T03:56:24;6.53;;;6.03;;
35496;SDS011;21609;49.298;6.844;2022-07-12T03:59:09;6.28;;;5.78;;
35496;SDS011;21609;49.298;6.844;2022-07-12T04:01:34;6.72;;;6.22;;
35496;SDS011;21609;49.298;6.844;2022-07-12T04:04:00;7.07;;;6.53;;
35496;SDS011;21609;49.298;6.844;2022-07-12T04:06:27;6.95;;;6.45;;
35496;SDS011;21609;49.298;6.844;2022-07-12T04:08:53;6.57;;;6.07;;
35496;SDS011;21609;49.298;6.844;2022-07-12T04:11:18;6.22;;;5.72;;
35496;SDS011;21609;49.298;6.844;2022-07-12T04:13:44;6.15;;;5.65;;
35496;SDS011;21609;49.298;6.844;2022-07-12T04:16:09;7.00;;;6.40;;
35496;SDS011;21609;49.298;6.844;2022-07-12T04:18:35;5.82;;;5.43;;
35496;SDS011;21609;49.298;6.844;2022-07-12T04:21:01;6.57;;;6.07;;
35496;SDS011;21609;49.298;6.844;2022-07-12T04:23:26;6.70;;;6.20;;
35496;SDS011;21609;49.298;6.844;2022-07-12T04:25:52;6.47;;;5.97;;
35496;SDS011;21609;49.298;6.844;2022-07-12T04:28:17;6.00;;;5.60;;
35496;SDS011;21609;49.298;6.844;2022-07-12T04:30:43;6.50;;;5.90;;
35496;SDS011;21609;49.298;6.844;2022-07-12T04:33:09;7.38;;;6.78;;
35496;SDS011;21609;49.298;6.844;2022-07-12T04:35:36;6.47;;;6.00;;
35496;SDS011;21609;49.298;6.844;2022-07-12T04:38:02;6.95;;;6.43;;
35496;SDS011;21609;49.298;6.844;2022-07-12T04:40:28;6.78;;;6.20;;
35496;SDS011;21609;49.298;6.844;2022-07-12T04:42:54;6.95;;;6.38;;
35496;SDS011;21609;49.298;6.844;2022-07-12T04:45:19;5.70;;;5.25;;
35496;SDS011;21609;49.298;6.844;2022-07-12T04:47:45;6.75;;;6.05;;
35496;SDS011;21609;49.298;6.844;2022-07-12T04:50:11;6.97;;;6.30;;
35496;SDS011;21609;49.298;6.844;2022-07-12T04:52:36;6.40;;;5.90;;
35496;SDS011;21609;49.298;6.844;2022-07-12T04:55:02;6.70;;;6.20;;
35496;SDS011;21609;49.298;6.844;2022-07-12T04:57:28;6.20;;;5.70;;
35496;SDS011;21609;49.298;6.844;2022-07-12T04:59:54;6.43;;;5.93;;
35496;SDS011;21609;49.298;6.844;2022-07-12T05:02:20;6.25;;;5.75;;
35496;SDS011;21609;49.298;6.844;2022-07-12T05:04:45;6.50;;;6.00;;
35496;SDS011;21609;49.298;6.844;2022-07-12T05:07:11;6.60;;;6.00;;
35496;SDS011;21609;49.298;6.844;2022-07-12T05:09:36;6.50;;;6.00;;
35496;SDS011;21609;49.298;6.844;2022-07-12T05:12:02;6.18;;;5.68;;
35496;SDS011;21609;49.298;6.844;2022-07-12T05:14:28;6.13;;;5.72;;
35496;SDS011;21609;49.298;6.844;2022-07-12T05:16:54;6.78;;;5.95;;
35496;SDS011;21609;49.298;6.844;2022-07-12T05:19:19;6.05;;;5.55;;
35496;SDS011;21609;49.298;6.844;2022-07-12T05:21:45;6.25;;;5.70;;
35496;SDS011;21609;49.298;6.844;2022-07-12T05:24:10;6.70;;;6.13;;
35496;SDS011;21609;49.298;6.844;2022-07-12T05:26:36;6.00;;;5.50;;
35496;SDS011;21609;49.298;6.844;2022-07-12T05:29:02;5.88;;;5.47;;
35496;SDS011;21609;49.298;6.844;2022-07-12T05:31:27;6.68;;;6.07;;
35496;SDS011;21609;49.298;6.844;2022-07-12T05:33:53;6.18;;;5.57;;
35496;SDS011;21609;49.298;6.844;2022-07-12T05:36:19;6.10;;;5.60;;
35496;SDS011;21609;49.298;6.844;2022-07-12T05:38:44;6.45;;;5.95;;
35496;SDS011;21609;49.298;6.844;2022-07-12T05:41:10;6.80;;;6.20;;
35496;SDS011;21609;49.298;6.844;2022-07-12T05:43:36;6.32;;;5.82;;
35496;SDS011;21609;49.298;6.844;2022-07-12T05:46:01;6.03;;;5.60;;
35496;SDS011;21609;49.298;6.844;2022-07-12T05:48:28;5.45;;;5.00;;
35496;SDS011;21609;49.298;6.844;2022-07-12T05:50:54;5.70;;;5.20;;
35496;SDS011;21609;49.298;6.844;2022-07-12T05:53:19;4.57;;;4.28;;
35496;SDS011;21609;49.298;6.844;2022-07-12T05:55:48;5.55;;;5.13;;
35496;SDS011;21609;49.298;6.844;2022-07-12T05:58:15;5.57;;;4.57;;
35496;SDS011;21609;49.298;6.844;2022-07-12T06:00:41;5.57;;;5.05;;
35496;SDS011;21609;49.298;6.844;2022-07-12T06:03:06;5.00;;;4.60;;
35496;SDS011;21609;49.298;6.844;2022-07-12T06:05:32;5.28;;;4.88;;
35496;SDS011;21609;49.298;6.844;2022-07-12T06:07:58;5.03;;;4.63;;
35496;SDS011;21609;49.298;6.844;2022-07-12T06:10:23;4.53;;;4.22;;
35496;SDS011;21609;49.298;6.844;2022-07-12T06:12:49;4.57;;;4.13;;
35496;SDS011;21609;49.298;6.844;2022-07-12T06:15:14;4.40;;;4.10;;
35496;SDS011;21609;49.298;6.844;2022-07-12T06:17:41;4.47;;;4.18;;
35496;SDS011;21609;49.298;6.844;2022-07-12T06:20:06;4.80;;;4.40;;
35496;SDS011;21609;49.298;6.844;2022-07-12T06:22:32;4.13;;;3.83;;
35496;SDS011;21609;49.298;6.844;2022-07-12T06:24:58;4.13;;;3.83;;
35496;SDS011;21609;49.298;6.844;2022-07-12T06:27:24;3.47;;;3.28;;
35496;SDS011;21609;49.298;6.844;2022-07-12T06:29:50;3.90;;;3.42;;
35496;SDS011;21609;49.298;6.844;2022-07-12T06:32:16;3.95;;;3.60;;
35496;SDS011;21609;49.298;6.844;2022-07-12T06:34:42;4.05;;;3.75;;
35496;SDS011;21609;49.298;6.844;2022-07-12T06:37:08;3.67;;;3.38;;
35496;SDS011;21609;49.298;6.844;2022-07-12T06:39:37;3.30;;;3.10;;
35496;SDS011;21609;49.298;6.844;2022-07-12T06:42:02;3.78;;;3.47;;
35496;SDS011;21609;49.298;6.844;2022-07-12T06:44:29;3.08;;;2.88;;
35496;SDS011;21609;49.298;6.844;2022-07-12T06:46:56;3.80;;;3.50;;
35496;SDS011;21609;49.298;6.844;2022-07-12T06:49:22;3.63;;;3.15;;
35496;SDS011;21609;49.298;6.844;2022-07-12T06:51:48;2.50;;;2.22;;
35496;SDS011;21609;49.298;6.844;2022-07-12T06:54:13;3.22;;;2.92;;
35496;SDS011;21609;49.298;6.844;2022-07-12T06:56:39;2.78;;;2.58;;
35496;SDS011;21609;49.298;6.844;2022-07-12T06:59:05;2.83;;;2.63;;
35496;SDS011;21609;49.298;6.844;2022-07-12T07:01:30;2.33;;;2.20;;
35496;SDS011;21609;49.298;6.844;2022-07-12T07:03:56;3.38;;;2.08;;
35496;SDS011;21609;49.298;6.844;2022-07-12T07:06:21;1.83;;;1.73;;
35496;SDS011;21609;49.298;6.844;2022-07-12T07:08:47;1.70;;;1.60;;
35496;SDS011;21609;49.298;6.844;2022-07-12T07:11:13;1.77;;;1.67;;
35496;SDS011;21609;49.298;6.844;2022-07-12T07:13:38;2.38;;;1.35;;
35496;SDS011;21609;49.298;6.844;2022-07-12T07:16:05;1.70;;;1.60;;
35496;SDS011;21609;49.298;6.844;2022-07-12T07:18:30;4.13;;;1.80;;
35496;SDS011;21609;49.298;6.844;2022-07-12T07:20:56;1.40;;;1.30;;
35496;SDS011;21609;49.298;6.844;2022-07-12T07:23:21;1.25;;;1.23;;
35496;SDS011;21609;49.298;6.844;2022-07-12T07:25:47;1.50;;;1.40;;
35496;SDS011;21609;49.298;6.844;2022-07-12T07:28:13;1.52;;;1.33;;
35496;SDS011;21609;49.298;6.844;2022-07-12T07:30:38;1.42;;;1.30;;
35496;SDS011;21609;49.298;6.844;2022-07-12T07:33:23;2.05;;;1.85;;
35496;SDS011;21609;49.298;6.844;2022-07-12T07:35:50;2.08;;;1.50;;
35496;SDS011;21609;49.298;6.844;2022-07-12T07:38:17;2.17;;;1.52;;
35496;SDS011;21609;49.298;6.844;2022-07-12T07:40:44;1.73;;;1.63;;
35496;SDS011;21609;49.298;6.844;2022-07-12T07:43:09;2.58;;;1.30;;
35496;SDS011;21609;49.298;6.844;2022-07-12T07:45:35;3.70;;;1.10;;
35496;SDS011;21609;49.298;6.844;2022-07-12T07:48:01;4.50;;;1.10;;
35496;SDS011;21609;49.298;6.844;2022-07-12T07:50:27;4.38;;;1.02;;
35496;SDS011;21609;49.298;6.844;2022-07-12T07:52:53;4.50;;;1.20;;
35496;SDS011;21609;49.298;6.844;2022-07-12T07:55:19;2.13;;;1.10;;
35496;SDS011;21609;49.298;6.844;2022-07-12T07:57:44;1.42;;;1.10;;
35496;SDS011;21609;49.298;6.844;2022-07-12T08:00:11;3.15;;;1.70;;
35496;SDS011;21609;49.298;6.844;2022-07-12T08:02:38;1.35;;;0.90;;
35496;SDS011;21609;49.298;6.844;2022-07-12T08:05:03;2.63;;;1.80;;
35496;SDS011;21609;49.298;6.844;2022-07-12T08:07:29;5.40;;;1.63;;
35496;SDS011;21609;49.298;6.844;2022-07-12T08:09:55;1.30;;;1.23;;
35496;SDS011;21609;49.298;6.844;2022-07-12T08:12:21;3.38;;;1.05;;
35496;SDS011;21609;49.298;6.844;2022-07-12T08:14:46;2.00;;;1.35;;
35496;SDS011;21609;49.298;6.844;2022-07-12T08:17:12;3.15;;;1.42;;
35496;SDS011;21609;49.298;6.844;2022-07-12T08:19:37;4.47;;;1.63;;
35496;SDS011;21609;49.298;6.844;2022-07-12T08:22:03;2.88;;;1.40;;
35496;SDS011;21609;49.298;6.844;2022-07-12T08:24:29;3.67;;;1.20;;
35496;SDS011;21609;49.298;6.844;2022-07-12T08:26:55;4.95;;;1.60;;
35496;SDS011;21609;49.298;6.844;2022-07-12T08:29:20;4.60;;;1.90;;
35496;SDS011;21609;49.298;6.844;2022-07-12T08:31:46;2.38;;;1.50;;
35496;SDS011;21609;49.298;6.844;2022-07-12T08:34:12;1.70;;;1.40;;
35496;SDS011;21609;49.298;6.844;2022-07-12T08:36:37;3.28;;;2.03;;
35496;SDS011;21609;49.298;6.844;2022-07-12T08:39:03;1.50;;;1.40;;
35496;SDS011;21609;49.298;6.844;2022-07-12T08:41:28;1.60;;;1.42;;
35496;SDS011;21609;49.298;6.844;2022-07-12T08:43:54;3.15;;;1.55;;
35496;SDS011;21609;49.298;6.844;2022-07-12T08:46:20;4.40;;;2.13;;
35496;SDS011;21609;49.298;6.844;2022-07-12T08:48:46;2.60;;;1.50;;
35496;SDS011;21609;49.298;6.844;2022-07-12T08:51:13;3.00;;;1.63;;
35496;SDS011;21609;49.298;6.844;2022-07-12T08:53:42;3.35;;;2.35;;
35496;SDS011;21609;49.298;6.844;2022-07-12T08:56:29;2.72;;;1.77;;
35496;SDS011;21609;49.298;6.844;2022-07-12T09:06:41;5.05;;;1.88;;
35496;SDS011;21609;49.298;6.844;2022-07-12T09:09:07;1.98;;;1.77;;
35496;SDS011;21609;49.298;6.844;2022-07-12T09:11:39;3.50;;;1.90;;
35496;SDS011;21609;49.298;6.844;2022-07-12T09:14:12;2.42;;;1.70;;
35496;SDS011;21609;49.298;6.844;2022-07-12T09:16:43;2.75;;;2.15;;
35496;SDS011;21609;49.298;6.844;2022-07-12T09:19:22;5.45;;;1.67;;
35496;SDS011;21609;49.298;6.844;2022-07-12T09:21:54;3.83;;;1.90;;
35496;SDS011;21609;49.298;6.844;2022-07-12T09:24:20;1.88;;;1.70;;
35496;SDS011;21609;49.298;6.844;2022-07-12T09:26:52;13.50;;;2.53;;
35496;SDS011;21609;49.298;6.844;2022-07-12T09:29:48;4.40;;;2.10;;
35496;SDS011;21609;49.298;6.844;2022-07-12T09:32:15;4.53;;;1.95;;
35496;SDS011;21609;49.298;6.844;2022-07-12T09:34:59;5.55;;;2.88;;
35496;SDS011;21609;49.298;6.844;2022-07-12T09:37:44;4.18;;;2.67;;
35496;SDS011;21609;49.298;6.844;2022-07-12T09:40:10;3.40;;;2.20;;
35496;SDS011;21609;49.298;6.844;2022-07-12T09:42:35;4.47;;;2.40;;
35496;SDS011;21609;49.298;6.844;2022-07-12T09:45:02;7.03;;;1.98;;
35496;SDS011;21609;49.298;6.844;2022-07-12T09:47:29;4.00;;;2.15;;
35496;SDS011;21609;49.298;6.844;2022-07-12T09:49:56;6.00;;;2.88;;
35496;SDS011;21609;49.298;6.844;2022-07-12T09:52:22;5.40;;;2.40;;
35496;SDS011;21609;49.298;6.844;2022-07-12T09:54:50;2.97;;;2.38;;
35496;SDS011;21609;49.298;6.844;2022-07-12T09:57:26;5.95;;;2.80;;
35496;SDS011;21609;49.298;6.844;2022-07-12T09:59:54;3.08;;;2.47;;
35496;SDS011;21609;49.298;6.844;2022-07-12T10:02:21;3.13;;;2.60;;
35496;SDS011;21609;49.298;6.844;2022-07-12T10:04:48;6.25;;;2.67;;
35496;SDS011;21609;49.298;6.844;2022-07-12T10:07:14;5.28;;;2.53;;
35496;SDS011;21609;49.298;6.844;2022-07-12T10:09:41;6.05;;;2.30;;
35496;SDS011;21609;49.298;6.844;2022-07-12T10:12:12;3.17;;;2.50;;
35496;SDS011;21609;49.298;6.844;2022-07-12T10:14:41;3.67;;;2.30;;
35496;SDS011;21609;49.298;6.844;2022-07-12T10:17:08;5.32;;;1.98;;
35496;SDS011;21609;49.298;6.844;2022-07-12T10:19:35;5.55;;;2.63;;
35496;SDS011;21609;49.298;6.844;2022-07-12T10:22:03;6.13;;;2.78;;
35496;SDS011;21609;49.298;6.844;2022-07-12T10:26:56;2.70;;;1.95;;
35496;SDS011;21609;49.298;6.844;2022-07-12T10:29:40;4.25;;;2.53;;
35496;SDS011;21609;49.298;6.844;2022-07-12T10:35:04;6.55;;;2.50;;
35496;SDS011;21609;49.298;6.844;2022-07-12T10:37:32;3.65;;;2.20;;
35496;SDS011;21609;49.298;6.844;2022-07-12T10:40:13;3.92;;;2.33;;
35496;SDS011;21609;49.298;6.844;2022-07-12T10:45:32;2.47;;;2.25;;
35496;SDS011;21609;49.298;6.844;2022-07-12T10:48:02;3.75;;;1.98;;
35496;SDS011;21609;49.298;6.844;2022-07-12T10:50:50;2.65;;;1.98;;
35496;SDS011;21609;49.298;6.844;2022-07-12T10:53:29;3.53;;;2.17;;
35496;SDS011;21609;49.298;6.844;2022-07-12T10:56:09;3.35;;;1.83;;
35496;SDS011;21609;49.298;6.844;2022-07-12T10:58:37;2.30;;;1.90;;
35496;SDS011;21609;49.298;6.844;2022-07-12T11:01:07;4.25;;;2.13;;
35496;SDS011;21609;49.298;6.844;2022-07-12T11:06:09;2.67;;;1.70;;
35496;SDS011;21609;49.298;6.844;2022-07-12T11:08:58;6.20;;;2.28;;
35496;SDS011;21609;49.298;6.844;2022-07-12T11:11:32;3.95;;;2.08;;
35496;SDS011;21609;49.298;6.844;2022-07-12T11:14:00;3.58;;;1.90;;
35496;SDS011;21609;49.298;6.844;2022-07-12T11:16:27;2.20;;;2.00;;
35496;SDS011;21609;49.298;6.844;2022-07-12T11:18:54;2.92;;;1.90;;
35496;SDS011;21609;49.298;6.844;2022-07-12T11:21:20;2.90;;;2.10;;
35496;SDS011;21609;49.298;6.844;2022-07-12T11:23:47;2.33;;;1.80;;
35496;SDS011;21609;49.298;6.844;2022-07-12T11:26:14;3.00;;;1.65;;
35496;SDS011;21609;49.298;6.844;2022-07-12T11:28:41;7.25;;;2.10;;
35496;SDS011;21609;49.298;6.844;2022-07-12T11:33:37;3.45;;;1.88;;
35496;SDS011;21609;49.298;6.844;2022-07-12T11:36:06;1.70;;;1.60;;
35496;SDS011;21609;49.298;6.844;2022-07-12T11:38:34;2.42;;;2.13;;
35496;SDS011;21609;49.298;6.844;2022-07-12T11:41:02;2.25;;;1.73;;
35496;SDS011;21609;49.298;6.844;2022-07-12T11:43:28;2.03;;;1.80;;
35496;SDS011;21609;49.298;6.844;2022-07-12T11:45:55;3.03;;;1.70;;
35496;SDS011;21609;49.298;6.844;2022-07-12T11:48:21;1.35;;;1.25;;
35496;SDS011;21609;49.298;6.844;2022-07-12T11:50:49;3.78;;;1.60;;
35496;SDS011;21609;49.298;6.844;2022-07-12T11:53:20;3.65;;;2.17;;
35496;SDS011;21609;49.298;6.844;2022-07-12T11:55:47;3.72;;;1.85;;
35496;SDS011;21609;49.298;6.844;2022-07-12T11:58:15;2.00;;;1.40;;
35496;SDS011;21609;49.298;6.844;2022-07-12T12:00:42;2.33;;;2.10;;
35496;SDS011;21609;49.298;6.844;2022-07-12T12:03:10;1.52;;;1.42;;
35496;SDS011;21609;49.298;6.844;2022-07-12T12:05:37;4.03;;;1.52;;
35496;SDS011;21609;49.298;6.844;2022-07-12T12:08:04;1.95;;;1.52;;
35496;SDS011;21609;49.298;6.844;2022-07-12T12:10:30;2.65;;;1.73;;
35496;SDS011;21609;49.298;6.844;2022-07-12T12:12:57;4.68;;;1.52;;
35496;SDS011;21609;49.298;6.844;2022-07-12T12:17:52;3.03;;;1.83;;
35496;SDS011;21609;49.298;6.844;2022-07-12T12:22:49;2.53;;;1.95;;
35496;SDS011;21609;49.298;6.844;2022-07-12T12:25:16;3.97;;;1.90;;
35496;SDS011;21609;49.298;6.844;2022-07-12T12:27:42;2.90;;;1.90;;
35496;SDS011;21609;49.298;6.844;2022-07-12T12:30:09;3.53;;;1.60;;
35496;SDS011;21609;49.298;6.844;2022-07-12T12:32:55;2.70;;;1.80;;
35496;SDS011;21609;49.298;6.844;2022-07-12T12:35:32;1.50;;;1.40;;
35496;SDS011;21609;49.298;6.844;2022-07-12T12:38:11;1.40;;;1.30;;
35496;SDS011;21609;49.298;6.844;2022-07-12T12:40:39;1.00;;;0.90;;
35496;SDS011;21609;49.298;6.844;2022-07-12T12:43:06;2.22;;;1.38;;
35496;SDS011;21609;49.298;6.844;2022-07-12T12:45:48;3.50;;;1.55;;
35496;SDS011;21609;49.298;6.844;2022-07-12T12:48:18;4.00;;;1.73;;
35496;SDS011;21609;49.298;6.844;2022-07-12T12:50:46;2.03;;;1.40;;
35496;SDS011;21609;49.298;6.844;2022-07-12T12:53:20;1.50;;;1.10;;
35496;SDS011;21609;49.298;6.844;2022-07-12T12:55:47;1.77;;;1.58;;
35496;SDS011;21609;49.298;6.844;2022-07-12T12:58:15;3.55;;;1.65;;
35496;SDS011;21609;49.298;6.844;2022-07-12T13:00:42;1.65;;;1.55;;
35496;SDS011;21609;49.298;6.844;2022-07-12T13:03:09;3.28;;;1.63;;
35496;SDS011;21609;49.298;6.844;2022-07-12T13:05:36;5.28;;;1.83;;
35496;SDS011;21609;49.298;6.844;2022-07-12T13:08:02;1.80;;;1.70;;
35496;SDS011;21609;49.298;6.844;2022-07-12T13:10:29;6.63;;;1.80;;
35496;SDS011;21609;49.298;6.844;2022-07-12T13:12:56;1.60;;;1.40;;
35496;SDS011;21609;49.298;6.844;2022-07-12T13:15:22;2.50;;;1.63;;
35496;SDS011;21609;49.298;6.844;2022-07-12T13:17:48;3.60;;;1.35;;
35496;SDS011;21609;49.298;6.844;2022-07-12T13:20:14;1.70;;;1.40;;
35496;SDS011;21609;49.298;6.844;2022-07-12T13:22:40;2.55;;;1.42;;
35496;SDS011;21609;49.298;6.844;2022-07-12T13:25:07;2.70;;;1.75;;
35496;SDS011;21609;49.298;6.844;2022-07-12T13:27:34;3.00;;;1.20;;
35496;SDS011;21609;49.298;6.844;2022-07-12T13:30:01;1.55;;;1.00;;
35496;SDS011;21609;49.298;6.844;2022-07-12T13:32:27;1.25;;;1.13;;
35496;SDS011;21609;49.298;6.844;2022-07-12T13:34:53;2.20;;;1.40;;
35496;SDS011;21609;49.298;6.844;2022-07-12T13:37:19;1.52;;;1.38;;
35496;SDS011;21609;49.298;6.844;2022-07-12T13:39:44;1.88;;;1.33;;
35496;SDS011;21609;49.298;6.844;2022-07-12T13:42:28;1.48;;;1.38;;
35496;SDS011;21609;49.298;6.844;2022-07-12T13:44:54;1.38;;;1.27;;
35496;SDS011;21609;49.298;6.844;2022-07-12T13:47:20;2.05;;;1.60;;
35496;SDS011;21609;49.298;6.844;2022-07-12T13:49:47;2.08;;;1.10;;
35496;SDS011;21609;49.298;6.844;2022-07-12T13:52:13;2.33;;;1.58;;
35496;SDS011;21609;49.298;6.844;2022-07-12T13:54:40;2.45;;;1.40;;
35496;SDS011;21609;49.298;6.844;2022-07-12T13:57:08;1.70;;;1.10;;
35496;SDS011;21609;49.298;6.844;2022-07-12T13:59:37;2.10;;;1.38;;
35496;SDS011;21609;49.298;6.844;2022-07-12T14:02:03;3.35;;;1.90;;
35496;SDS011;21609;49.298;6.844;2022-07-12T14:04:29;1.25;;;1.13;;
35496;SDS011;21609;49.298;6.844;2022-07-12T14:06:56;1.30;;;1.20;;
35496;SDS011;21609;49.298;6.844;2022-07-12T14:09:22;1.40;;;1.30;;
35496;SDS011;21609;49.298;6.844;2022-07-12T14:11:48;1.40;;;0.98;;
35496;SDS011;21609;49.298;6.844;2022-07-12T14:14:14;2.38;;;1.40;;
35496;SDS011;21609;49.298;6.844;2022-07-12T14:16:41;2.30;;;1.10;;
35496;SDS011;21609;49.298;6.844;2022-07-12T14:19:06;1.75;;;1.30;;
35496;SDS011;21609;49.298;6.844;2022-07-12T14:21:32;2.70;;;1.45;;
35496;SDS011;21609;49.298;6.844;2022-07-12T14:23:57;2.20;;;1.45;;
35496;SDS011;21609;49.298;6.844;2022-07-12T14:26:25;1.98;;;1.23;;
35496;SDS011;21609;49.298;6.844;2022-07-12T14:28:52;3.28;;;1.70;;
35496;SDS011;21609;49.298;6.844;2022-07-12T14:31:17;4.90;;;2.03;;
35496;SDS011;21609;49.298;6.844;2022-07-12T14:33:43;1.50;;;1.20;;
35496;SDS011;21609;49.298;6.844;2022-07-12T14:36:09;1.70;;;1.30;;
35496;SDS011;21609;49.298;6.844;2022-07-12T14:38:34;2.22;;;1.92;;
35496;SDS011;21609;49.298;6.844;2022-07-12T14:41:00;1.85;;;1.48;;
35496;SDS011;21609;49.298;6.844;2022-07-12T14:43:26;1.42;;;1.33;;
35496;SDS011;21609;49.298;6.844;2022-07-12T14:45:51;1.60;;;1.40;;
35496;SDS011;21609;49.298;6.844;2022-07-12T14:48:17;1.38;;;1.27;;
35496;SDS011;21609;49.298;6.844;2022-07-12T14:50:43;1.75;;;1.00;;
35496;SDS011;21609;49.298;6.844;2022-07-12T14:53:08;1.45;;;1.35;;
35496;SDS011;21609;49.298;6.844;2022-07-12T14:55:34;5.03;;;1.50;;
35496;SDS011;21609;49.298;6.844;2022-07-12T14:58:00;2.15;;;1.50;;
35496;SDS011;21609;49.298;6.844;2022-07-12T15:00:26;1.42;;;1.08;;
35496;SDS011;21609;49.298;6.844;2022-07-12T15:02:53;2.40;;;1.55;;
35496;SDS011;21609;49.298;6.844;2022-07-12T15:05:24;1.38;;;1.17;;
35496;SDS011;21609;49.298;6.844;2022-07-12T15:07:50;1.73;;;1.40;;
35496;SDS011;21609;49.298;6.844;2022-07-12T15:10:16;1.90;;;1.45;;
35496;SDS011;21609;49.298;6.844;2022-07-12T15:12:41;2.03;;;1.30;;
35496;SDS011;21609;49.298;6.844;2022-07-12T15:15:07;1.35;;;1.10;;